sensor_id;sensor_type;location;lat;lon;timestamp;pressure;altitude;pressure_sealevel;temperature;humidity
43147;BME280;28752;48.266;7.402;2023-05-19T00:00:50;99826.41;;;14.34;47.75
43147;BME280;28752;48.266;7.402;2023-05-19T00:03:16;99826.22;;;14.27;47.71
43147;BME280;28752;48.266;7.402;2023-05-19T00:05:47;99831.50;;;14.19;48.07
43147;BME280;28752;48.266;7.402;2023-05-19T00:08:15;99832.16;;;14.21;48.01
43147;BME280;28752;48.266;7.402;2023-05-19T00:10:41;99824.84;;;14.23;48.04
43147;BME280;28752;48.266;7.402;2023-05-19T00:13:07;99829.16;;;14.16;48.30
43147;BME280;28752;48.266;7.402;2023-05-19T00:15:33;99819.00;;;14.19;48.41
43147;BME280;28752;48.266;7.402;2023-05-19T00:17:58;99823.34;;;14.20;48.24
43147;BME280;28752;48.266;7.402;2023-05-19T00:20:23;99825.13;;;14.12;48.38
43147;BME280;28752;48.266;7.402;2023-05-19T00:22:49;99817.94;;;14.04;48.54
43147;BME280;28752;48.266;7.402;2023-05-19T00:25:15;99822.84;;;14.25;48.24
43147;BME280;28752;48.266;7.402;2023-05-19T00:27:41;99824.47;;;14.10;48.80
43147;BME280;28752;48.266;7.402;2023-05-19T00:30:07;99822.34;;;14.21;48.54
43147;BME280;28752;48.266;7.402;2023-05-19T00:32:33;99826.97;;;14.11;48.52
43147;BME280;28752;48.266;7.402;2023-05-19T00:34:59;99822.13;;;14.15;48.41
43147;BME280;28752;48.266;7.402;2023-05-19T00:37:24;99825.13;;;14.12;48.50
43147;BME280;28752;48.266;7.402;2023-05-19T00:39:50;99819.00;;;14.19;48.71
43147;BME280;28752;48.266;7.402;2023-05-19T00:42:15;99816.53;;;14.26;48.51
43147;BME280;28752;48.266;7.402;2023-05-19T00:44:41;99818.84;;;14.21;48.67
43147;BME280;28752;48.266;7.402;2023-05-19T00:47:09;99819.31;;;14.16;49.05
43147;BME280;28752;48.266;7.402;2023-05-19T00:49:34;99815.00;;;14.15;49.17
43147;BME280;28752;48.266;7.402;2023-05-19T00:52:00;99817.78;;;14.06;49.47
43147;BME280;28752;48.266;7.402;2023-05-19T00:54:27;99813.09;;;13.99;49.63
43147;BME280;28752;48.266;7.402;2023-05-19T00:56:55;99811.06;;;13.93;49.96
43147;BME280;28752;48.266;7.402;2023-05-19T00:59:22;99799.38;;;13.86;50.34
43147;BME280;28752;48.266;7.402;2023-05-19T01:01:48;99803.84;;;13.77;51.04
43147;BME280;28752;48.266;7.402;2023-05-19T01:04:20;99802.03;;;13.60;51.67
43147;BME280;28752;48.266;7.402;2023-05-19T01:06:47;99803.75;;;13.43;52.34
43147;BME280;28752;48.266;7.402;2023-05-19T01:09:14;99802.81;;;13.52;51.77
43147;BME280;28752;48.266;7.402;2023-05-19T01:11:40;99802.94;;;13.68;51.04
43147;BME280;28752;48.266;7.402;2023-05-19T01:14:05;99796.56;;;13.61;51.22
43147;BME280;28752;48.266;7.402;2023-05-19T01:16:37;99790.47;;;13.69;50.79
43147;BME280;28752;48.266;7.402;2023-05-19T01:25:01;99796.56;;;13.61;52.02
43147;BME280;28752;48.266;7.402;2023-05-19T01:27:46;99796.06;;;13.58;51.81
43147;BME280;28752;48.266;7.402;2023-05-19T01:30:22;99803.09;;;13.23;53.67
43147;BME280;28752;48.266;7.402;2023-05-19T01:32:52;99792.22;;;13.34;53.78
43147;BME280;28752;48.266;7.402;2023-05-19T01:35:18;99796.59;;;13.25;54.06
43147;BME280;28752;48.266;7.402;2023-05-19T01:37:45;99792.69;;;13.11;54.83
43147;BME280;28752;48.266;7.402;2023-05-19T01:40:11;99799.63;;;13.04;55.32
43147;BME280;28752;48.266;7.402;2023-05-19T01:42:39;99796.50;;;12.91;55.92
43147;BME280;28752;48.266;7.402;2023-05-19T01:45:06;99803.56;;;13.00;55.53
43147;BME280;28752;48.266;7.402;2023-05-19T01:47:35;99804.22;;;12.84;56.43
43147;BME280;28752;48.266;7.402;2023-05-19T01:50:05;99799.75;;;12.85;56.89
43147;BME280;28752;48.266;7.402;2023-05-19T01:52:31;99808.03;;;12.64;57.43
43147;BME280;28752;48.266;7.402;2023-05-19T01:54:57;99800.19;;;12.62;57.53
43147;BME280;28752;48.266;7.402;2023-05-19T02:00:06;99810.56;;;12.55;58.09
43147;BME280;28752;48.266;7.402;2023-05-19T02:02:54;99803.19;;;12.49;58.06
43147;BME280;28752;48.266;7.402;2023-05-19T02:05:34;99802.56;;;12.37;58.72
43147;BME280;28752;48.266;7.402;2023-05-19T02:08:11;99801.84;;;12.45;59.02
43147;BME280;28752;48.266;7.402;2023-05-19T02:10:40;99805.94;;;12.39;59.09
43147;BME280;28752;48.266;7.402;2023-05-19T02:13:05;99807.94;;;12.27;59.51
43147;BME280;28752;48.266;7.402;2023-05-19T02:15:39;99806.25;;;12.26;59.84
43147;BME280;28752;48.266;7.402;2023-05-19T02:18:08;99798.00;;;12.30;59.38
43147;BME280;28752;48.266;7.402;2023-05-19T02:20:34;99805.00;;;12.31;59.12
43147;BME280;28752;48.266;7.402;2023-05-19T02:22:59;99811.28;;;12.30;59.45
43147;BME280;28752;48.266;7.402;2023-05-19T02:25:25;99806.66;;;12.32;58.77
43147;BME280;28752;48.266;7.402;2023-05-19T02:27:51;99811.63;;;12.17;59.66
43147;BME280;28752;48.266;7.402;2023-05-19T02:30:17;99804.69;;;12.34;59.00
43147;BME280;28752;48.266;7.402;2023-05-19T02:32:42;99805.00;;;12.31;59.39
43147;BME280;28752;48.266;7.402;2023-05-19T02:35:11;99808.59;;;12.12;60.12
43147;BME280;28752;48.266;7.402;2023-05-19T02:37:36;99812.75;;;12.14;59.70
43147;BME280;28752;48.266;7.402;2023-05-19T02:40:02;99808.69;;;12.20;58.65
43147;BME280;28752;48.266;7.402;2023-05-19T02:42:28;99806.84;;;12.20;58.55
43147;BME280;28752;48.266;7.402;2023-05-19T02:44:53;99802.09;;;12.24;57.84
43147;BME280;28752;48.266;7.402;2023-05-19T02:47:19;99804.75;;;12.24;59.18
43147;BME280;28752;48.266;7.402;2023-05-19T02:49:44;99809.50;;;12.20;59.84
43147;BME280;28752;48.266;7.402;2023-05-19T02:52:10;99810.81;;;12.16;60.07
43147;BME280;28752;48.266;7.402;2023-05-19T02:54:36;99806.47;;;12.15;59.33
43147;BME280;28752;48.266;7.402;2023-05-19T02:57:01;99805.34;;;12.18;57.93
43147;BME280;28752;48.266;7.402;2023-05-19T02:59:27;99797.31;;;12.27;58.79
43147;BME280;28752;48.266;7.402;2023-05-19T03:01:59;99807.13;;;12.27;58.38
43147;BME280;28752;48.266;7.402;2023-05-19T03:04:25;99802.34;;;12.31;57.95
43147;BME280;28752;48.266;7.402;2023-05-19T03:06:50;99796.50;;;12.27;59.24
43147;BME280;28752;48.266;7.402;2023-05-19T03:09:16;99808.22;;;12.24;59.54
43147;BME280;28752;48.266;7.402;2023-05-19T03:11:41;99809.13;;;12.15;58.36
43147;BME280;28752;48.266;7.402;2023-05-19T03:14:07;99793.56;;;12.20;58.12
43147;BME280;28752;48.266;7.402;2023-05-19T03:16:36;99794.50;;;12.29;58.44
43147;BME280;28752;48.266;7.402;2023-05-19T03:19:01;99798.41;;;12.35;58.54
43147;BME280;28752;48.266;7.402;2023-05-19T03:21:27;99801.81;;;12.27;58.66
43147;BME280;28752;48.266;7.402;2023-05-19T03:23:52;99800.13;;;12.26;58.16
43147;BME280;28752;48.266;7.402;2023-05-19T03:26:18;99803.00;;;12.33;58.58
43147;BME280;28752;48.266;7.402;2023-05-19T03:28:44;99796.66;;;12.25;59.42
43147;BME280;28752;48.266;7.402;2023-05-19T03:31:09;99811.34;;;12.20;60.31
43147;BME280;28752;48.266;7.402;2023-05-19T03:33:34;99808.81;;;12.18;60.70
43147;BME280;28752;48.266;7.402;2023-05-19T03:36:00;99815.84;;;12.09;60.75
43147;BME280;28752;48.266;7.402;2023-05-19T03:38:25;99819.75;;;12.15;60.46
43147;BME280;28752;48.266;7.402;2023-05-19T03:40:51;99822.41;;;12.15;60.61
43147;BME280;28752;48.266;7.402;2023-05-19T03:43:17;99818.13;;;11.95;59.76
43147;BME280;28752;48.266;7.402;2023-05-19T03:45:42;99815.47;;;11.95;59.71
43147;BME280;28752;48.266;7.402;2023-05-19T03:48:08;99822.56;;;12.04;58.52
43147;BME280;28752;48.266;7.402;2023-05-19T03:50:33;99815.00;;;12.09;59.27
43147;BME280;28752;48.266;7.402;2023-05-19T03:52:59;99820.84;;;12.13;58.33
43147;BME280;28752;48.266;7.402;2023-05-19T03:55:25;99826.81;;;12.24;58.41
43147;BME280;28752;48.266;7.402;2023-05-19T03:57:51;99826.22;;;12.31;57.64
43147;BME280;28752;48.266;7.402;2023-05-19T04:00:19;99815.38;;;12.24;58.06
43147;BME280;28752;48.266;7.402;2023-05-19T04:02:44;99813.34;;;12.36;57.72
43147;BME280;28752;48.266;7.402;2023-05-19T04:05:09;99814.22;;;12.26;57.35
43147;BME280;28752;48.266;7.402;2023-05-19T04:07:35;99826.22;;;12.31;57.53
43147;BME280;28752;48.266;7.402;2023-05-19T04:10:03;99824.03;;;12.26;57.56
43147;BME280;28752;48.266;7.402;2023-05-19T04:12:29;99818.19;;;12.22;57.28
43147;BME280;28752;48.266;7.402;2023-05-19T04:14:54;99816.78;;;12.46;57.31
43147;BME280;28752;48.266;7.402;2023-05-19T04:17:19;99816.44;;;12.59;57.67
43147;BME280;28752;48.266;7.402;2023-05-19T04:19:45;99825.94;;;12.34;58.59
43147;BME280;28752;48.266;7.402;2023-05-19T04:22:11;99815.47;;;12.32;58.57
43147;BME280;28752;48.266;7.402;2023-05-19T04:24:36;99816.19;;;12.24;58.85
43147;BME280;28752;48.266;7.402;2023-05-19T04:27:01;99823.56;;;12.31;59.00
43147;BME280;28752;48.266;7.402;2023-05-19T04:29:29;99822.34;;;12.25;59.02
43147;BME280;28752;48.266;7.402;2023-05-19T04:31:54;99815.91;;;12.27;58.70
43147;BME280;28752;48.266;7.402;2023-05-19T04:34:21;99818.25;;;12.31;57.98
43147;BME280;28752;48.266;7.402;2023-05-19T04:36:46;99817.13;;;12.33;57.79
43147;BME280;28752;48.266;7.402;2023-05-19T04:39:12;99830.31;;;12.25;57.56
43147;BME280;28752;48.266;7.402;2023-05-19T04:41:38;99812.63;;;12.43;57.92
43147;BME280;28752;48.266;7.402;2023-05-19T04:44:05;99812.25;;;12.56;57.23
43147;BME280;28752;48.266;7.402;2023-05-19T04:46:31;99813.94;;;12.57;57.00
43147;BME280;28752;48.266;7.402;2023-05-19T04:48:57;99817.56;;;12.56;57.60
43147;BME280;28752;48.266;7.402;2023-05-19T04:51:25;99819.63;;;12.62;58.39
43147;BME280;28752;48.266;7.402;2023-05-19T04:53:53;99821.75;;;12.59;59.26
43147;BME280;28752;48.266;7.402;2023-05-19T04:56:19;99824.03;;;12.72;58.11
43147;BME280;28752;48.266;7.402;2023-05-19T04:58:44;99822.81;;;12.66;59.36
43147;BME280;28752;48.266;7.402;2023-05-19T05:01:10;99816.00;;;12.64;60.38
43147;BME280;28752;48.266;7.402;2023-05-19T05:03:37;99814.84;;;12.48;60.15
43147;BME280;28752;48.266;7.402;2023-05-19T05:06:03;99811.50;;;12.64;60.91
43147;BME280;28752;48.266;7.402;2023-05-19T05:08:28;99808.97;;;12.44;59.66
43147;BME280;28752;48.266;7.402;2023-05-19T05:10:54;99822.94;;;12.65;59.93
43147;BME280;28752;48.266;7.402;2023-05-19T05:13:21;99819.44;;;12.74;58.75
43147;BME280;28752;48.266;7.402;2023-05-19T05:15:50;99819.78;;;12.79;58.80
43147;BME280;28752;48.266;7.402;2023-05-19T05:18:18;99823.25;;;12.61;57.71
43147;BME280;28752;48.266;7.402;2023-05-19T05:20:44;99820.56;;;12.71;57.24
43147;BME280;28752;48.266;7.402;2023-05-19T05:23:11;99823.53;;;12.86;57.62
43147;BME280;28752;48.266;7.402;2023-05-19T05:25:39;99820.88;;;12.86;57.35
43147;BME280;28752;48.266;7.402;2023-05-19T05:28:05;99821.47;;;12.98;56.70
43147;BME280;28752;48.266;7.402;2023-05-19T05:30:31;99817.22;;;12.87;56.32
43147;BME280;28752;48.266;7.402;2023-05-19T05:32:57;99822.47;;;12.97;56.48
43147;BME280;28752;48.266;7.402;2023-05-19T05:35:22;99829.38;;;13.08;56.07
43147;BME280;28752;48.266;7.402;2023-05-19T05:37:48;99823.59;;;13.12;56.46
43147;BME280;28752;48.266;7.402;2023-05-19T05:40:13;99821.75;;;13.13;56.46
43147;BME280;28752;48.266;7.402;2023-05-19T05:42:39;99821.41;;;13.08;56.64
43147;BME280;28752;48.266;7.402;2023-05-19T05:45:05;99823.91;;;13.09;57.01
43147;BME280;28752;48.266;7.402;2023-05-19T05:47:31;99823.38;;;13.06;56.83
43147;BME280;28752;48.266;7.402;2023-05-19T05:49:56;99813.56;;;13.06;56.67
43147;BME280;28752;48.266;7.402;2023-05-19T05:52:27;99818.59;;;13.09;57.23
43147;BME280;28752;48.266;7.402;2023-05-19T05:54:53;99829.06;;;13.29;57.32
43147;BME280;28752;48.266;7.402;2023-05-19T05:57:19;99821.16;;;13.19;57.53
43147;BME280;28752;48.266;7.402;2023-05-19T05:59:44;99814.88;;;13.38;56.98
43147;BME280;28752;48.266;7.402;2023-05-19T06:02:11;99815.97;;;13.54;57.42
43147;BME280;28752;48.266;7.402;2023-05-19T06:04:36;99814.78;;;13.74;56.99
43147;BME280;28752;48.266;7.402;2023-05-19T06:07:01;99814.94;;;13.73;55.47
43147;BME280;28752;48.266;7.402;2023-05-19T06:09:27;99811.91;;;13.67;55.75
43147;BME280;28752;48.266;7.402;2023-05-19T06:11:54;99812.94;;;14.01;55.02
43147;BME280;28752;48.266;7.402;2023-05-19T06:14:19;99809.44;;;14.00;54.64
43147;BME280;28752;48.266;7.402;2023-05-19T06:16:45;99810.09;;;14.02;54.61
43147;BME280;28752;48.266;7.402;2023-05-19T06:19:12;99815.56;;;13.93;55.27
43147;BME280;28752;48.266;7.402;2023-05-19T06:21:37;99818.34;;;14.17;54.76
43147;BME280;28752;48.266;7.402;2023-05-19T06:24:03;99813.91;;;14.34;54.85
43147;BME280;28752;48.266;7.402;2023-05-19T06:26:28;99821.81;;;14.18;53.41
43147;BME280;28752;48.266;7.402;2023-05-19T06:28:53;99830.41;;;14.03;53.57
43147;BME280;28752;48.266;7.402;2023-05-19T06:31:19;99823.94;;;14.06;53.28
43147;BME280;28752;48.266;7.402;2023-05-19T06:33:44;99817.28;;;14.02;53.42
43147;BME280;28752;48.266;7.402;2023-05-19T06:36:10;99827.28;;;14.08;53.46
43147;BME280;28752;48.266;7.402;2023-05-19T06:38:36;99825.75;;;14.06;53.61
43147;BME280;28752;48.266;7.402;2023-05-19T06:41:01;99820.41;;;13.97;53.64
43147;BME280;28752;48.266;7.402;2023-05-19T06:43:26;99824.16;;;14.21;53.50
43147;BME280;28752;48.266;7.402;2023-05-19T06:45:52;99825.03;;;14.21;53.41
43147;BME280;28752;48.266;7.402;2023-05-19T06:48:18;99817.38;;;14.27;53.10
43147;BME280;28752;48.266;7.402;2023-05-19T06:50:43;99817.66;;;14.58;52.26
43147;BME280;28752;48.266;7.402;2023-05-19T06:53:08;99823.31;;;14.55;52.12
43147;BME280;28752;48.266;7.402;2023-05-19T06:55:34;99831.81;;;14.58;52.27
43147;BME280;28752;48.266;7.402;2023-05-19T06:58:00;99822.28;;;14.56;52.05
43147;BME280;28752;48.266;7.402;2023-05-19T07:00:25;99824.09;;;14.90;51.52
43147;BME280;28752;48.266;7.402;2023-05-19T07:02:51;99829.91;;;14.93;51.31
43147;BME280;28752;48.266;7.402;2023-05-19T07:05:16;99826.94;;;15.38;50.64
43147;BME280;28752;48.266;7.402;2023-05-19T07:07:42;99825.09;;;15.30;50.24
43147;BME280;28752;48.266;7.402;2023-05-19T07:10:07;99827.94;;;16.34;48.66
43147;BME280;28752;48.266;7.402;2023-05-19T07:12:33;99811.72;;;16.98;46.62
43147;BME280;28752;48.266;7.402;2023-05-19T07:14:58;99807.38;;;18.85;43.51
43147;BME280;28752;48.266;7.402;2023-05-19T07:17:24;99817.31;;;19.27;41.55
43147;BME280;28752;48.266;7.402;2023-05-19T07:19:49;99810.88;;;19.78;40.90
43147;BME280;28752;48.266;7.402;2023-05-19T07:22:14;99811.63;;;19.94;40.54
43147;BME280;28752;48.266;7.402;2023-05-19T07:24:40;99798.09;;;20.22;39.91
43147;BME280;28752;48.266;7.402;2023-05-19T07:27:05;99806.97;;;20.16;39.10
43147;BME280;28752;48.266;7.402;2023-05-19T07:29:31;99802.28;;;20.31;38.96
43147;BME280;28752;48.266;7.402;2023-05-19T07:31:56;99803.34;;;20.37;39.46
43147;BME280;28752;48.266;7.402;2023-05-19T07:34:23;99801.50;;;21.33;38.44
43147;BME280;28752;48.266;7.402;2023-05-19T07:36:48;99805.66;;;21.15;37.89
43147;BME280;28752;48.266;7.402;2023-05-19T07:39:14;99788.19;;;22.57;36.64
43147;BME280;28752;48.266;7.402;2023-05-19T07:41:39;99782.59;;;22.90;35.59
43147;BME280;28752;48.266;7.402;2023-05-19T07:44:05;99786.38;;;21.38;37.37
43147;BME280;28752;48.266;7.402;2023-05-19T07:46:33;99779.44;;;23.25;35.28
43147;BME280;28752;48.266;7.402;2023-05-19T07:48:58;99781.81;;;23.15;35.09
43147;BME280;28752;48.266;7.402;2023-05-19T07:51:23;99783.34;;;23.73;34.29
43147;BME280;28752;48.266;7.402;2023-05-19T07:53:49;99778.66;;;23.43;34.81
43147;BME280;28752;48.266;7.402;2023-05-19T07:56:15;99789.50;;;21.22;37.68
43147;BME280;28752;48.266;7.402;2023-05-19T07:58:40;99786.03;;;19.69;40.13
43147;BME280;28752;48.266;7.402;2023-05-19T08:01:06;99790.13;;;19.37;41.23
43147;BME280;28752;48.266;7.402;2023-05-19T08:03:31;99781.16;;;19.51;41.17
43147;BME280;28752;48.266;7.402;2023-05-19T08:05:57;99790.59;;;18.97;42.35
43147;BME280;28752;48.266;7.402;2023-05-19T08:08:22;99785.19;;;18.54;42.98
43147;BME280;28752;48.266;7.402;2023-05-19T08:10:48;99797.13;;;18.37;44.06
43147;BME280;28752;48.266;7.402;2023-05-19T08:13:13;99788.41;;;17.98;44.73
43147;BME280;28752;48.266;7.402;2023-05-19T08:15:39;99793.06;;;18.41;44.49
43147;BME280;28752;48.266;7.402;2023-05-19T08:18:05;99792.50;;;18.45;44.08
43147;BME280;28752;48.266;7.402;2023-05-19T08:20:30;99787.91;;;18.24;44.91
43147;BME280;28752;48.266;7.402;2023-05-19T08:22:56;99787.25;;;18.37;45.04
43147;BME280;28752;48.266;7.402;2023-05-19T08:25:21;99780.84;;;18.53;44.18
43147;BME280;28752;48.266;7.402;2023-05-19T08:27:47;99771.31;;;18.87;44.53
43147;BME280;28752;48.266;7.402;2023-05-19T08:30:12;99782.03;;;18.87;44.21
43147;BME280;28752;48.266;7.402;2023-05-19T08:32:37;99787.91;;;19.76;43.29
43147;BME280;28752;48.266;7.402;2023-05-19T08:35:03;99774.63;;;19.67;43.08
43147;BME280;28752;48.266;7.402;2023-05-19T08:37:29;99773.34;;;19.28;43.27
43147;BME280;28752;48.266;7.402;2023-05-19T08:39:54;99769.00;;;19.56;44.00
43147;BME280;28752;48.266;7.402;2023-05-19T08:42:21;99760.47;;;19.52;43.46
43147;BME280;28752;48.266;7.402;2023-05-19T08:44:46;99770.78;;;18.77;43.92
43147;BME280;28752;48.266;7.402;2023-05-19T08:47:13;99762.06;;;18.90;44.30
43147;BME280;28752;48.266;7.402;2023-05-19T08:49:43;99766.41;;;19.19;43.58
43147;BME280;28752;48.266;7.402;2023-05-19T08:52:26;99768.25;;;19.12;43.68
43147;BME280;28752;48.266;7.402;2023-05-19T08:55:03;99763.63;;;19.27;43.06
43147;BME280;28752;48.266;7.402;2023-05-19T08:57:31;99760.25;;;19.18;43.90
43147;BME280;28752;48.266;7.402;2023-05-19T08:59:57;99763.56;;;18.77;43.90
43147;BME280;28752;48.266;7.402;2023-05-19T09:02:23;99756.84;;;18.67;44.56
43147;BME280;28752;48.266;7.402;2023-05-19T09:04:49;99753.56;;;18.50;44.78
43147;BME280;28752;48.266;7.402;2023-05-19T09:07:14;99760.34;;;18.67;44.86
43147;BME280;28752;48.266;7.402;2023-05-19T09:09:43;99748.59;;;18.46;44.94
43147;BME280;28752;48.266;7.402;2023-05-19T09:12:12;99745.50;;;19.08;44.48
43147;BME280;28752;48.266;7.402;2023-05-19T09:14:38;99746.97;;;18.89;44.22
43147;BME280;28752;48.266;7.402;2023-05-19T09:17:04;99742.38;;;19.04;44.12
43147;BME280;28752;48.266;7.402;2023-05-19T09:19:30;99729.13;;;18.81;44.35
43147;BME280;28752;48.266;7.402;2023-05-19T09:21:59;99729.59;;;18.63;45.12
43147;BME280;28752;48.266;7.402;2023-05-19T09:24:25;99722.13;;;19.02;44.77
43147;BME280;28752;48.266;7.402;2023-05-19T09:26:54;99731.97;;;18.94;44.31
43147;BME280;28752;48.266;7.402;2023-05-19T09:29:20;99736.88;;;19.41;43.87
43147;BME280;28752;48.266;7.402;2023-05-19T09:31:50;99737.16;;;19.24;43.31
43147;BME280;28752;48.266;7.402;2023-05-19T09:34:16;99732.16;;;18.93;44.61
43147;BME280;28752;48.266;7.402;2023-05-19T09:36:41;99739.75;;;19.11;43.75
43147;BME280;28752;48.266;7.402;2023-05-19T09:39:14;99737.50;;;18.93;44.02
43147;BME280;28752;48.266;7.402;2023-05-19T09:41:39;99730.94;;;18.95;44.13
43147;BME280;28752;48.266;7.402;2023-05-19T09:44:05;99731.44;;;19.34;43.29
43147;BME280;28752;48.266;7.402;2023-05-19T09:46:31;99732.38;;;19.20;43.64
43147;BME280;28752;48.266;7.402;2023-05-19T09:49:00;99729.84;;;19.40;43.75
43147;BME280;28752;48.266;7.402;2023-05-19T09:51:34;99724.25;;;19.34;43.38
43147;BME280;28752;48.266;7.402;2023-05-19T09:54:01;99732.50;;;19.68;43.24
43147;BME280;28752;48.266;7.402;2023-05-19T09:56:30;99731.72;;;19.46;43.25
43147;BME280;28752;48.266;7.402;2023-05-19T09:58:57;99730.38;;;19.92;42.69
43147;BME280;28752;48.266;7.402;2023-05-19T10:01:23;99724.50;;;20.30;41.50
43147;BME280;28752;48.266;7.402;2023-05-19T10:03:49;99722.38;;;20.67;41.28
43147;BME280;28752;48.266;7.402;2023-05-19T10:06:15;99724.78;;;20.62;41.88
43147;BME280;28752;48.266;7.402;2023-05-19T10:08:41;99732.50;;;20.03;40.50
43147;BME280;28752;48.266;7.402;2023-05-19T10:11:08;99729.22;;;20.14;41.82
43147;BME280;28752;48.266;7.402;2023-05-19T10:13:35;99729.31;;;19.86;41.38
43147;BME280;28752;48.266;7.402;2023-05-19T10:16:02;99730.16;;;19.86;41.44
43147;BME280;28752;48.266;7.402;2023-05-19T10:18:28;99720.22;;;19.87;41.42
43147;BME280;28752;48.266;7.402;2023-05-19T10:20:54;99737.28;;;19.73;41.98
43147;BME280;28752;48.266;7.402;2023-05-19T10:23:21;99705.88;;;20.15;42.01
43147;BME280;28752;48.266;7.402;2023-05-19T10:25:48;99717.13;;;20.52;41.76
43147;BME280;28752;48.266;7.402;2023-05-19T10:28:16;99710.53;;;20.61;40.50
43147;BME280;28752;48.266;7.402;2023-05-19T10:30:46;99736.56;;;20.54;40.52
43147;BME280;28752;48.266;7.402;2023-05-19T10:33:16;99710.19;;;20.91;40.81
43147;BME280;28752;48.266;7.402;2023-05-19T10:36:08;99727.34;;;20.76;40.14
43147;BME280;28752;48.266;7.402;2023-05-19T10:41:38;99712.31;;;20.27;40.35
43147;BME280;28752;48.266;7.402;2023-05-19T10:47:22;99716.88;;;20.33;41.78
43147;BME280;28752;48.266;7.402;2023-05-19T10:49:47;99719.06;;;20.03;41.39
43147;BME280;28752;48.266;7.402;2023-05-19T10:52:22;99707.31;;;20.11;42.00
43147;BME280;28752;48.266;7.402;2023-05-19T10:54:54;99711.34;;;19.86;42.00
43147;BME280;28752;48.266;7.402;2023-05-19T10:57:24;99708.31;;;20.10;42.62
43147;BME280;28752;48.266;7.402;2023-05-19T10:59:51;99719.19;;;19.88;42.54
43147;BME280;28752;48.266;7.402;2023-05-19T11:02:39;99718.59;;;19.86;42.01
43147;BME280;28752;48.266;7.402;2023-05-19T11:05:13;99720.00;;;19.82;42.31
43147;BME280;28752;48.266;7.402;2023-05-19T11:08:04;99718.78;;;19.84;41.43
43147;BME280;28752;48.266;7.402;2023-05-19T11:10:32;99699.91;;;20.26;41.82
43147;BME280;28752;48.266;7.402;2023-05-19T11:12:58;99716.22;;;19.76;41.72
43147;BME280;28752;48.266;7.402;2023-05-19T11:15:26;99710.41;;;19.73;41.92
43147;BME280;28752;48.266;7.402;2023-05-19T11:17:53;99714.09;;;20.00;41.56
43147;BME280;28752;48.266;7.402;2023-05-19T11:20:25;99710.59;;;20.06;41.73
43147;BME280;28752;48.266;7.402;2023-05-19T11:23:13;99700.75;;;20.40;41.57
43147;BME280;28752;48.266;7.402;2023-05-19T11:25:46;99703.78;;;19.68;42.40
43147;BME280;28752;48.266;7.402;2023-05-19T11:28:19;99711.03;;;19.75;43.05
43147;BME280;28752;48.266;7.402;2023-05-19T11:30:52;99700.50;;;20.15;42.04
43147;BME280;28752;48.266;7.402;2023-05-19T11:33:19;99707.22;;;19.91;42.62
43147;BME280;28752;48.266;7.402;2023-05-19T11:35:46;99693.13;;;20.57;41.86
43147;BME280;28752;48.266;7.402;2023-05-19T11:38:13;99704.78;;;20.02;42.13
43147;BME280;28752;48.266;7.402;2023-05-19T11:40:40;99714.97;;;20.14;42.67
43147;BME280;28752;48.266;7.402;2023-05-19T11:43:06;99703.66;;;20.32;42.51
43147;BME280;28752;48.266;7.402;2023-05-19T11:45:31;99715.63;;;20.29;41.86
43147;BME280;28752;48.266;7.402;2023-05-19T11:47:58;99693.41;;;20.07;42.34
43147;BME280;28752;48.266;7.402;2023-05-19T11:50:24;99696.56;;;20.11;42.67
43147;BME280;28752;48.266;7.402;2023-05-19T11:52:50;99705.72;;;19.81;42.84
43147;BME280;28752;48.266;7.402;2023-05-19T11:55:17;99701.00;;;19.90;42.61
43147;BME280;28752;48.266;7.402;2023-05-19T11:58:01;99713.91;;;20.08;43.00
43147;BME280;28752;48.266;7.402;2023-05-19T12:00:28;99715.72;;;20.56;42.07
43147;BME280;28752;48.266;7.402;2023-05-19T12:02:55;99710.09;;;20.51;41.58
43147;BME280;28752;48.266;7.402;2023-05-19T12:05:21;99715.75;;;20.83;41.35
43147;BME280;28752;48.266;7.402;2023-05-19T12:07:47;99706.63;;;20.70;41.58
43147;BME280;28752;48.266;7.402;2023-05-19T12:10:26;99709.06;;;20.52;41.49
43147;BME280;28752;48.266;7.402;2023-05-19T12:12:53;99708.50;;;20.70;41.41
43147;BME280;28752;48.266;7.402;2023-05-19T12:15:19;99712.25;;;20.82;41.24
43147;BME280;28752;48.266;7.402;2023-05-19T12:17:48;99699.19;;;20.72;41.83
43147;BME280;28752;48.266;7.402;2023-05-19T12:20:14;99708.09;;;20.80;41.43
43147;BME280;28752;48.266;7.402;2023-05-19T12:22:40;99704.03;;;20.22;41.78
43147;BME280;28752;48.266;7.402;2023-05-19T12:25:05;99708.38;;;20.30;41.79
43147;BME280;28752;48.266;7.402;2023-05-19T12:27:34;99718.53;;;19.79;43.12
43147;BME280;28752;48.266;7.402;2023-05-19T12:30:02;99704.22;;;20.14;42.88
43147;BME280;28752;48.266;7.402;2023-05-19T12:32:28;99694.28;;;20.14;42.67
43147;BME280;28752;48.266;7.402;2023-05-19T12:34:56;99697.22;;;20.26;42.91
43147;BME280;28752;48.266;7.402;2023-05-19T12:37:25;99704.88;;;20.22;42.37
43147;BME280;28752;48.266;7.402;2023-05-19T12:39:51;99703.28;;;20.62;41.76
43147;BME280;28752;48.266;7.402;2023-05-19T12:42:17;99696.63;;;20.44;41.98
43147;BME280;28752;48.266;7.402;2023-05-19T12:44:43;99690.66;;;20.55;41.74
43147;BME280;28752;48.266;7.402;2023-05-19T12:47:13;99684.31;;;20.83;41.67
43147;BME280;28752;48.266;7.402;2023-05-19T12:52:22;99685.94;;;21.04;41.28
43147;BME280;28752;48.266;7.402;2023-05-19T12:54:49;99679.75;;;21.10;41.03
43147;BME280;28752;48.266;7.402;2023-05-19T12:57:18;99684.28;;;21.03;41.61
43147;BME280;28752;48.266;7.402;2023-05-19T12:59:44;99675.53;;;21.35;40.26
43147;BME280;28752;48.266;7.402;2023-05-19T13:02:11;99686.16;;;21.23;41.19
43147;BME280;28752;48.266;7.402;2023-05-19T13:04:36;99683.47;;;20.96;40.63
43147;BME280;28752;48.266;7.402;2023-05-19T13:07:02;99678.47;;;20.53;40.98
43147;BME280;28752;48.266;7.402;2023-05-19T13:09:27;99670.63;;;20.91;41.12
43147;BME280;28752;48.266;7.402;2023-05-19T13:11:53;99668.34;;;20.75;41.47
43147;BME280;28752;48.266;7.402;2023-05-19T13:14:18;99672.22;;;20.52;43.01
43147;BME280;28752;48.266;7.402;2023-05-19T13:16:44;99667.72;;;20.66;41.48